Aviation Digital Data Service (ADDS)

Output produced by METARs form (0300 UTC 18 August 2017)
found at http://www.aviationweather.gov/adds/metars/
 
UKKM 180230Z AUTO 03002MPS 9999 ///100/// 19/15 Q1020
TAF UKKM 172301Z 1800/1824 04003MPS 9999 SCT020 
     TEMPO 1800/1806 09002MPS 1000 BR SCT025CB 
     BECMG 1806/1808 10004MPS 9999 SCT040 TX31/1812Z TN18/1803Z
       
UKBB 180230Z 03002MPS CAVOK 15/12 Q1020 R88/CLRD// NOSIG
TAF UKBB 172301Z 1800/1824 05003MPS 9999 SCT040 
     TEMPO 1806/1816 08005G10MPS TX31/1812Z TN16/1803Z
       
UKBB 180230Z 03002MPS CAVOK 15/12 Q1020 R88/CLRD// NOSIG
TAF UKBB 172301Z 1800/1824 05003MPS 9999 SCT040 
     TEMPO 1806/1816 08005G10MPS TX31/1812Z TN16/1803Z
       
UKDD 180230Z 04005MPS CAVOK 20/08 Q1016 R08/090070 NOSIG
TAF UKDD 172305Z 1800/1824 06006G11MPS 9999 BKN040 
     TEMPO 1805/1818 09008G13MPS TX35/1812Z TN19/1802Z
       
UKDE 180230Z 03004MPS CAVOK 22/07 Q1015 R02/CLRD70 NOSIG
TAF UKDE 180204Z 1803/1812 04005MPS 9999 BKN040 
     TEMPO 1803/1806 06007G12MPS SCT030CB 
     TEMPO 1806/1812 08009G14MPS TX33/1812Z TN21/1803Z
       
UKDR 180230Z 04005MPS 360V080 CAVOK 21/08 Q1016 R36/09//70 NOSIG
TAF UKDR 172310Z 1800/1824 04004MPS 9999 SCT040 
     BECMG 1805/1807 08008G13MPS 
     BECMG 1817/1819 05004MPS TX33/1812Z TN21/1803Z
       
UKHH 180230Z 05003MPS CAVOK 20/10 Q1019 R07/0///66 NOSIG
TAF UKHH 180210Z 1803/1812 04005MPS 9999 SCT030 
     TEMPO 1806/1812 05007G13MPS TX32/1812Z TN19/1803Z
       
UKKK 180230Z 08003MPS CAVOK 19/13 Q1020 R08/70D NOSIG
TAF UKKK 172305Z 1800/1824 09003G08MPS 9999 SCT030 
     BECMG 1806/1808 10005G10MPS 
     TEMPO 1808/1816 SCT025CB TX31/1813Z TN18/1802Z
       
UKKM 180230Z AUTO 03002MPS 9999 ///100/// 19/15 Q1020
TAF UKKM 172301Z 1800/1824 04003MPS 9999 SCT020 
     TEMPO 1800/1806 09002MPS 1000 BR SCT025CB 
     BECMG 1806/1808 10004MPS 9999 SCT040 TX31/1812Z TN18/1803Z
       
UKLI 180230Z 00000MPS CAVOK 12/12 Q1019 R28/090070 NOSIG
TAF UKLI 180203Z 1803/1812 VRB02MPS 4000 BR SCT033 
     TEMPO 1803/1805 1100 BR BKN010 
     BECMG 1805/1807 15005MPS 9999 NSW BKN020 TX30/1812Z TN12/1803Z
       
UKLL 180230Z 00000MPS CAVOK 15/15 Q1019 R13/CLRD// NOSIG
TAF UKLL 172306Z 1800/1824 VRB02MPS 3000 BR BKN010 
     TEMPO 1800/1806 0400 FG VV002 
     BECMG 1806/1807 17003MPS 9999 NSW BKN020 SCT025CB TX30/1813Z TN14/1803Z
       
UKLN 180230Z VRB01MPS CAVOK 16/15 Q1019 NOSIG
TAF UKLN 180204Z 1803/1812 VRB02MPS 9999 SCT040 
     TEMPO 1803/1805 1200 BR BKN006 TX30/1812Z TN17/1803Z
       
UKLU 180200Z 00000MPS 9999 SKC 18/15 Q1018 NOSIG
TAF UKLU 180203Z 1803/1812 VRB02MPS 9999 NSC TX29/1812Z TN16/1803Z
       
UKOH 180230Z 03004MPS 350V050 CAVOK 19/08 Q1014 NOSIG
TAF UKOH 180202Z 1803/1812 02006MPS 9999 BKN030 TX33/1812Z TN20/1803Z
       
TAF UKON 180203Z 1803/1812 02005MPS 9999 SCT025CB 
     BECMG 1806/1808 06007G12MPS TX33/1812Z TN21/1803Z
       
UKOO 180230Z 03004MPS CAVOK 21/11 Q1015 R34/090060 NOSIG
TAF UKOO 172305Z 1800/1824 01003MPS 6000 SCT020 
     BECMG 1805/1806 06006G12MPS TX34/1811Z TN20/1802Z
       
UKWW 180230Z 00000MPS 9999 SCT033 SCT100 16/14 Q1019 R13/0///65 NOSIG
TAF UKWW 180210Z 1803/1812 VRB02MPS 9999 SCT030 
     TEMPO 1803/1806 4000 BR TX30/1812Z TN16/1803Z
       
UKLN 180230Z VRB01MPS CAVOK 16/15 Q1019 NOSIG
TAF UKLN 180204Z 1803/1812 VRB02MPS 9999 SCT040 
     TEMPO 1803/1805 1200 BR BKN006 TX30/1812Z TN17/1803Z
       
UKDD 180230Z 04005MPS CAVOK 20/08 Q1016 R08/090070 NOSIG
TAF UKDD 172305Z 1800/1824 06006G11MPS 9999 BKN040 
     TEMPO 1805/1818 09008G13MPS TX35/1812Z TN19/1802Z
       
UKLI 180230Z 00000MPS CAVOK 12/12 Q1019 R28/090070 NOSIG
TAF UKLI 180203Z 1803/1812 VRB02MPS 4000 BR SCT033 
     TEMPO 1803/1805 1100 BR BKN010 
     BECMG 1805/1807 15005MPS 9999 NSW BKN020 TX30/1812Z TN12/1803Z
       
UKDR 180230Z 04005MPS 360V080 CAVOK 21/08 Q1016 R36/09//70 NOSIG
TAF UKDR 172310Z 1800/1824 04004MPS 9999 SCT040 
     BECMG 1805/1807 08008G13MPS 
     BECMG 1817/1819 05004MPS TX33/1812Z TN21/1803Z
       
UKLL 180230Z 00000MPS CAVOK 15/15 Q1019 R13/CLRD// NOSIG
TAF UKLL 172306Z 1800/1824 VRB02MPS 3000 BR BKN010 
     TEMPO 1800/1806 0400 FG VV002 
     BECMG 1806/1807 17003MPS 9999 NSW BKN020 SCT025CB TX30/1813Z TN14/1803Z
       
UKDE 180230Z 03004MPS CAVOK 22/07 Q1015 R02/CLRD70 NOSIG
TAF UKDE 180204Z 1803/1812 04005MPS 9999 BKN040 
     TEMPO 1803/1806 06007G12MPS SCT030CB 
     TEMPO 1806/1812 08009G14MPS TX33/1812Z TN21/1803Z
       
TAF UKON 180203Z 1803/1812 02005MPS 9999 SCT025CB 
     BECMG 1806/1808 06007G12MPS TX33/1812Z TN21/1803Z
       
UKOO 180230Z 03004MPS CAVOK 21/11 Q1015 R34/090060 NOSIG
TAF UKOO 172305Z 1800/1824 01003MPS 6000 SCT020 
     BECMG 1805/1806 06006G12MPS TX34/1811Z TN20/1802Z
       
UKHH 180230Z 05003MPS CAVOK 20/10 Q1019 R07/0///66 NOSIG
TAF UKHH 180210Z 1803/1812 04005MPS 9999 SCT030 
     TEMPO 1806/1812 05007G13MPS TX32/1812Z TN19/1803Z
       
UKLU 180200Z 00000MPS 9999 SKC 18/15 Q1018 NOSIG
TAF UKLU 180203Z 1803/1812 VRB02MPS 9999 NSC TX29/1812Z TN16/1803Z
       
UKKK 180230Z 08003MPS CAVOK 19/13 Q1020 R08/70D NOSIG
TAF UKKK 172305Z 1800/1824 09003G08MPS 9999 SCT030 
     BECMG 1806/1808 10005G10MPS 
     TEMPO 1808/1816 SCT025CB TX31/1813Z TN18/1802Z